Possession, Washington
Current Conditions -  °F | °C
As of 4:53 PM on Saturday 22 Nov 2014 (Local Time) from KPAE Reporting Station
Few Clouds Few Clouds  
Wind Chill: 41°   Ceiling: Unl
Heat Index: 45°   Visibility: 10mi
Dew Point: 41°   Wind: 8mph
Humidity: 86%   Direction: 160°SSE
Pressure: 29.97"   Gusts: NA
Location:  47.9614°N, 122.409°W
Report Text: KPAE 230053Z 16007KT 10SM FEW031 07/05 A2997 RMK AO2 SLP153 T00720050
Loading
Personal Weather Stations






























Interactive Weather Map New forecast layout! Learn more

10-Day Weather Forecast

Advertisements
Track Severe Weather on mobile